Time;durP1;ratioP1;P1;durP2;ratioP2;P2;SDS_P1;SDS_P2;PMS_P1;PMS_P2;Temp;Humidity;BMP_temperature;BMP_pressure;BME280_temperature;BME280_humidity;BME280_pressure;Samples;Min_cycle;Max_cycle;Signal;HPM_P1;HPM_P2
2023/04/15 00:00:38;;;;;;;5.82;3.38;;;;;;;7.15;68.75;100688.13;4953535;28;20027;-77
2023/04/15 00:03:07;;;;;;;7.70;3.53;;;;;;;7.14;68.81;100694.16;4952530;28;20402;-78
2023/04/15 00:05:32;;;;;;;6.30;3.58;;;;;;;7.09;68.13;100683.91;4953445;28;20137;-78
2023/04/15 00:07:57;;;;;;;7.97;3.63;;;;;;;7.08;68.23;100691.69;4953563;28;20066;-78
2023/04/15 00:10:23;;;;;;;5.90;3.63;;;;;;;7.05;68.16;100684.81;4953127;28;20031;-78
2023/04/15 00:12:49;;;;;;;7.50;3.42;;;;;;;7.02;68.38;100682.25;4949515;28;20358;-78
2023/04/15 00:15:15;;;;;;;6.75;3.67;;;;;;;7.00;69.13;100691.78;4952771;28;20023;-78
2023/04/15 00:17:40;;;;;;;5.95;3.97;;;;;;;6.97;68.99;100689.25;4952324;28;20023;-78
2023/04/15 00:20:06;;;;;;;7.50;3.60;;;;;;;6.95;68.97;100688.41;4953175;28;20031;-78
2023/04/15 00:22:31;;;;;;;6.88;3.85;;;;;;;6.93;68.39;100683.22;4959890;28;20027;-78
2023/04/15 00:24:57;;;;;;;6.20;3.70;;;;;;;6.91;69.58;100689.31;4951385;28;20059;-78
2023/04/15 00:27:22;;;;;;;8.00;3.67;;;;;;;6.88;68.90;100689.34;4951524;28;20426;-78
2023/04/15 00:29:47;;;;;;;7.90;3.97;;;;;;;6.86;68.90;100691.97;4950429;28;20062;-78
2023/04/15 00:32:13;;;;;;;5.93;3.78;;;;;;;6.85;69.15;100690.25;4953054;28;20030;-78
2023/04/15 00:34:38;;;;;;;5.97;3.78;;;;;;;6.83;69.26;100697.16;4952357;28;20023;-78
2023/04/15 00:37:03;;;;;;;7.25;4.20;;;;;;;6.80;69.78;100692.91;4947553;28;20023;-78
2023/04/15 00:39:29;;;;;;;6.88;3.92;;;;;;;6.81;70.22;100694.63;4950905;28;20033;-78
2023/04/15 00:41:56;;;;;;;6.00;3.70;;;;;;;6.78;69.72;100689.47;4948608;28;20185;-77
2023/04/15 00:44:21;;;;;;;6.78;3.85;;;;;;;6.76;69.41;100693.81;4950268;28;20031;-78
2023/04/15 00:46:48;;;;;;;6.57;3.92;;;;;;;6.76;69.27;100693.81;4950869;28;20379;-78
2023/04/15 00:49:13;;;;;;;6.60;3.72;;;;;;;6.73;69.64;100696.44;4951132;28;20023;-78
2023/04/15 00:51:39;;;;;;;7.57;4.15;;;;;;;6.71;69.11;100689.56;4949411;28;20027;-78
2023/04/15 00:54:05;;;;;;;5.35;3.85;;;;;;;6.66;69.43;100689.63;4950452;28;20090;-78
2023/04/15 00:56:34;;;;;;;6.43;4.20;;;;;;;6.64;70.17;100687.06;4953421;28;20038;-78
2023/04/15 00:59:00;;;;;;;6.50;3.95;;;;;;;6.63;70.65;100689.66;4952271;28;20035;-78
2023/04/15 01:01:27;;;;;;;7.03;4.00;;;;;;;6.61;69.44;100691.41;4951354;28;20360;-78
2023/04/15 01:03:55;;;;;;;5.60;3.92;;;;;;;6.59;69.81;100693.16;4952341;28;20038;-77
2023/04/15 01:06:20;;;;;;;8.00;3.92;;;;;;;6.56;69.31;100693.19;4951933;28;20027;-78
2023/04/15 01:08:46;;;;;;;7.90;4.32;;;;;;;6.53;70.21;100691.50;4952549;28;20498;-78
2023/04/15 01:11:11;;;;;;;5.57;3.88;;;;;;;6.48;69.83;100688.97;4951309;28;20487;-78
2023/04/15 01:13:37;;;;;;;6.60;4.40;;;;;;;6.44;70.59;100689.00;4952533;28;20027;-78
2023/04/15 01:16:02;;;;;;;7.03;4.28;;;;;;;6.41;70.19;100684.75;4952516;28;20031;-78
2023/04/15 01:18:29;;;;;;;7.10;3.97;;;;;;;6.39;70.86;100686.47;4951862;28;20106;-78
2023/04/15 01:20:54;;;;;;;7.35;4.10;;;;;;;6.36;70.69;100689.97;4953096;28;20031;-78
2023/04/15 01:23:23;;;;;;;7.00;4.18;;;;;;;6.33;70.64;100692.56;4951492;28;20210;-78
2023/04/15 01:25:49;;;;;;;7.40;3.92;;;;;;;6.29;70.94;100687.47;4964941;28;20046;-78
2023/04/15 01:28:15;;;;;;;6.90;3.78;;;;;;;6.27;71.37;100686.63;4951130;28;20060;-78
2023/04/15 01:30:40;;;;;;;6.78;4.00;;;;;;;6.27;71.19;100695.22;4950344;28;20047;-78
2023/04/15 01:33:06;;;;;;;7.07;4.25;;;;;;;6.26;71.23;100690.06;4948868;28;20118;-78
2023/04/15 01:35:31;;;;;;;7.10;4.13;;;;;;;6.24;71.49;100687.47;4953217;28;20019;-78
2023/04/15 01:38:05;;;;;;;5.80;3.85;;;;;;;6.20;70.39;100685.81;4953898;28;20027;-78
2023/04/15 01:40:30;;;;;;;7.25;4.13;;;;;;;6.15;70.75;100691.00;4949361;28;20406;-78
2023/04/15 01:42:56;;;;;;;6.47;4.38;;;;;;;6.10;70.43;100687.66;4948711;28;20479;-78
2023/04/15 01:45:21;;;;;;;7.53;4.43;;;;;;;6.05;70.55;100681.66;4948991;28;20036;-78
2023/04/15 01:47:46;;;;;;;8.55;4.45;;;;;;;6.01;70.88;100680.84;4949960;28;20483;-78
2023/04/15 01:50:11;;;;;;;7.13;4.43;;;;;;;5.97;71.06;100683.44;4950456;28;20035;-77
2023/04/15 01:52:37;;;;;;;7.50;4.57;;;;;;;5.95;71.86;100680.00;4948472;28;20035;-78
2023/04/15 01:55:03;;;;;;;7.45;4.57;;;;;;;5.91;71.80;100679.16;4947863;28;20534;-78
2023/04/15 01:57:28;;;;;;;6.10;4.20;;;;;;;5.90;72.11;100688.66;4948463;28;20034;-78
2023/04/15 01:59:53;;;;;;;7.95;4.65;;;;;;;5.90;71.27;100692.94;4943300;28;20508;-78
2023/04/15 02:02:19;;;;;;;6.85;4.65;;;;;;;5.89;71.21;100689.50;4950354;28;20019;-78
2023/04/15 02:04:44;;;;;;;7.53;4.60;;;;;;;5.89;71.72;100697.25;4952105;28;20097;-78
2023/04/15 02:07:09;;;;;;;7.22;4.93;;;;;;;5.87;71.53;100699.00;4948661;28;20035;-78
2023/04/15 02:09:35;;;;;;;8.38;4.72;;;;;;;5.85;71.43;100703.31;4949566;28;20034;-78
2023/04/15 02:12:00;;;;;;;6.35;4.55;;;;;;;5.83;71.91;100702.47;4949873;28;20062;-78
2023/04/15 02:14:25;;;;;;;8.02;4.97;;;;;;;5.83;72.72;100702.47;4951872;28;20024;-78
2023/04/15 02:16:51;;;;;;;8.45;4.57;;;;;;;5.83;72.27;100702.47;4949357;28;20031;-78
2023/04/15 02:19:16;;;;;;;8.02;4.63;;;;;;;5.81;72.30;100704.19;4951829;28;20769;-78
2023/04/15 02:21:41;;;;;;;7.95;4.72;;;;;;;5.78;72.70;100699.09;4952507;28;20039;-78
2023/04/15 02:24:07;;;;;;;6.55;4.75;;;;;;;5.75;72.92;100704.28;4952131;28;20525;-78
2023/04/15 02:26:32;;;;;;;6.72;4.53;;;;;;;5.72;72.37;100702.53;4956914;28;20030;-78
2023/04/15 02:28:58;;;;;;;6.90;4.40;;;;;;;5.69;72.60;100705.19;4951992;28;20031;-78
2023/04/15 02:31:24;;;;;;;6.40;4.47;;;;;;;5.67;72.27;100706.03;4950378;28;20383;-77
2023/04/15 02:33:50;;;;;;;8.43;4.88;;;;;;;5.66;72.35;100707.78;4954459;28;20055;-78
2023/04/15 02:36:15;;;;;;;8.40;5.00;;;;;;;5.64;72.88;100706.09;4956076;28;20058;-78
2023/04/15 02:38:41;;;;;;;7.85;4.57;;;;;;;5.63;73.12;100710.38;4962090;28;20023;-78
2023/04/15 02:41:09;;;;;;;5.90;4.53;;;;;;;5.61;73.43;100718.13;4953759;28;20030;-78
2023/04/15 02:43:34;;;;;;;6.57;4.40;;;;;;;5.59;73.30;100719.00;4954963;28;20035;-78
2023/04/15 02:45:59;;;;;;;6.05;4.50;;;;;;;5.58;73.60;100715.56;4953936;28;20019;-78
2023/04/15 02:48:25;;;;;;;6.50;4.10;;;;;;;5.58;74.21;100717.28;4955476;28;20498;-78
2023/04/15 02:50:51;;;;;;;6.35;4.40;;;;;;;5.55;73.46;100718.19;4950057;28;20047;-78
2023/04/15 02:53:16;;;;;;;6.20;3.95;;;;;;;5.56;73.26;100722.47;4967306;28;20024;-78
2023/04/15 02:55:41;;;;;;;7.32;4.80;;;;;;;5.54;73.25;100726.78;4955151;28;20029;-78
2023/04/15 02:58:07;;;;;;;7.60;4.60;;;;;;;5.52;73.42;100728.50;4968450;28;20031;-78
2023/04/15 03:00:32;;;;;;;7.35;4.50;;;;;;;5.51;73.28;100726.78;4954092;28;20031;-78
2023/04/15 03:03:01;;;;;;;7.22;4.75;;;;;;;5.49;73.89;100728.53;4954338;28;20106;-78
2023/04/15 03:05:26;;;;;;;8.68;5.00;;;;;;;5.50;73.52;100730.25;4954597;28;20375;-77
2023/04/15 03:07:52;;;;;;;6.30;4.50;;;;;;;5.50;73.22;100724.25;4954978;28;20538;-78
2023/04/15 03:10:17;;;;;;;8.70;4.65;;;;;;;5.49;73.78;100722.53;4951846;28;20503;-78
2023/04/15 03:12:43;;;;;;;8.77;5.00;;;;;;;5.49;73.61;100725.94;4953909;28;20047;-78
2023/04/15 03:15:09;;;;;;;6.65;4.55;;;;;;;5.49;73.75;100727.69;4954725;28;20471;-77
2023/04/15 03:17:34;;;;;;;7.00;4.60;;;;;;;5.47;74.27;100719.94;4949336;28;20035;-77
2023/04/15 03:20:04;;;;;;;7.72;4.80;;;;;;;5.44;74.31;100725.97;4954036;28;20114;-78
2023/04/15 03:22:31;;;;;;;8.88;5.25;;;;;;;5.43;74.54;100726.00;4952101;28;20224;-78
2023/04/15 03:24:56;;;;;;;6.60;4.68;;;;;;;5.40;74.65;100728.59;4952687;28;20439;-78
2023/04/15 03:27:21;;;;;;;8.52;5.03;;;;;;;5.39;74.74;100732.03;4948980;28;20490;-78
2023/04/15 03:29:47;;;;;;;6.80;4.75;;;;;;;5.37;75.13;100726.03;4949664;28;20182;-78
2023/04/15 03:32:14;;;;;;;6.78;4.57;;;;;;;5.36;74.80;100732.94;4951069;28;20394;-78
2023/04/15 03:34:39;;;;;;;7.32;4.80;;;;;;;5.35;75.03;100730.34;4953648;28;20031;-78
2023/04/15 03:37:05;;;;;;;6.93;4.47;;;;;;;5.35;75.06;100732.91;4950309;28;20035;-78
2023/04/15 03:39:30;;;;;;;6.47;4.30;;;;;;;5.34;75.22;100734.66;4955224;28;20027;-78
2023/04/15 03:41:56;;;;;;;8.45;5.10;;;;;;;5.32;75.15;100728.66;4964485;28;20031;-78
2023/04/15 03:44:22;;;;;;;7.05;4.75;;;;;;;5.32;74.95;100737.22;4958645;28;20027;-77
2023/04/15 03:46:47;;;;;;;6.10;4.38;;;;;;;5.31;75.23;100735.50;4952546;28;20110;-78
2023/04/15 03:49:12;;;;;;;6.47;4.68;;;;;;;5.30;75.55;100746.69;4948292;28;20494;-77
2023/04/15 03:51:38;;;;;;;6.57;4.80;;;;;;;5.30;75.64;100748.44;4952321;28;20038;-78
2023/04/15 03:54:03;;;;;;;6.78;4.53;;;;;;;5.31;75.98;100760.47;4952060;28;20463;-78
2023/04/15 03:56:28;;;;;;;6.95;4.78;;;;;;;5.30;75.77;100757.00;4954449;28;20129;-78
2023/04/15 03:58:54;;;;;;;8.00;4.40;;;;;;;5.30;76.35;100761.31;4951357;28;20045;-77
2023/04/15 04:01:20;;;;;;;7.70;4.57;;;;;;;5.32;76.23;100765.59;4949916;28;20359;-77
2023/04/15 04:03:45;;;;;;;8.98;5.03;;;;;;;5.30;76.37;100775.06;4954684;28;20034;-77
2023/04/15 04:06:11;;;;;;;8.90;5.07;;;;;;;5.28;76.24;100766.50;4951600;28;20019;-78
2023/04/15 04:08:36;;;;;;;6.25;4.35;;;;;;;5.28;76.75;100771.66;4950788;28;20098;-77
2023/04/15 04:11:02;;;;;;;8.45;4.90;;;;;;;5.27;76.63;100775.13;4952623;28;20026;-78
2023/04/15 04:13:27;;;;;;;7.40;4.72;;;;;;;5.27;76.60;100784.56;4951381;28;20038;-78
2023/04/15 04:15:52;;;;;;;9.32;4.70;;;;;;;5.28;76.24;100788.84;4948107;28;20110;-78
2023/04/15 04:18:17;;;;;;;7.90;4.93;;;;;;;5.27;76.48;100790.59;4951842;28;20372;-78
2023/04/15 04:20:43;;;;;;;6.75;5.00;;;;;;;5.27;77.04;100793.16;4953898;28;20027;-77
2023/04/15 04:23:08;;;;;;;7.68;5.05;;;;;;;5.27;76.60;100806.06;4951776;28;20090;-78
2023/04/15 04:25:33;;;;;;;7.28;5.00;;;;;;;5.25;76.29;100796.59;4952976;28;20070;-78
2023/04/15 04:27:59;;;;;;;7.00;4.53;;;;;;;5.23;76.88;100799.19;4952515;28;20119;-78
2023/04/15 04:30:24;;;;;;;6.50;4.40;;;;;;;5.23;77.25;100804.34;4951027;28;20110;-78
2023/04/15 04:32:50;;;;;;;7.65;4.97;;;;;;;5.21;77.18;100805.22;4949743;28;20027;-78
2023/04/15 04:35:16;;;;;;;7.18;4.55;;;;;;;5.20;77.19;100814.69;4953449;28;20131;-78
2023/04/15 04:37:41;;;;;;;9.45;5.40;;;;;;;5.19;76.66;100820.69;4953274;28;20031;-78
2023/04/15 04:40:08;;;;;;;9.32;5.30;;;;;;;5.18;76.87;100815.56;4951231;28;20486;-78
2023/04/15 04:42:33;;;;;;;8.10;5.07;;;;;;;5.16;76.89;100825.84;4953263;28;20037;-78
2023/04/15 04:44:58;;;;;;;7.72;5.40;;;;;;;5.16;77.10;100825.84;4950093;28;20039;-78
2023/04/15 04:47:24;;;;;;;6.35;4.53;;;;;;;5.15;77.42;100821.56;4952351;28;20199;-78
2023/04/15 04:49:49;;;;;;;7.65;5.10;;;;;;;5.14;77.41;100827.59;4953205;28;20058;-78
2023/04/15 04:52:14;;;;;;;7.55;4.75;;;;;;;5.13;77.69;100831.91;4951884;28;20019;-78
2023/04/15 04:54:40;;;;;;;7.45;4.93;;;;;;;5.12;77.65;100837.06;4953238;28;20486;-77
2023/04/15 04:57:06;;;;;;;6.68;4.53;;;;;;;5.12;77.86;100842.22;4950979;28;20027;-78
2023/04/15 04:59:32;;;;;;;6.65;4.55;;;;;;;5.10;77.89;100837.06;4948415;28;20036;-78
2023/04/15 05:01:57;;;;;;;9.50;5.25;;;;;;;5.12;78.02;100839.66;4948371;28;20109;-77
2023/04/15 05:04:22;;;;;;;8.60;5.00;;;;;;;5.11;77.66;100840.50;4951532;28;20027;-78
2023/04/15 05:06:48;;;;;;;8.25;4.93;;;;;;;5.11;77.83;100846.50;4947644;28;20482;-77
2023/04/15 05:09:13;;;;;;;6.82;4.93;;;;;;;5.10;78.10;100854.25;4949586;28;20031;-78
2023/04/15 05:11:38;;;;;;;7.10;4.45;;;;;;;5.09;78.25;100857.72;4958322;28;20085;-77
2023/04/15 05:14:03;;;;;;;8.50;4.95;;;;;;;5.09;78.34;100860.28;4954823;28;20368;-78
2023/04/15 05:16:29;;;;;;;6.85;4.72;;;;;;;5.08;78.37;100864.56;4950169;28;20019;-78
2023/04/15 05:18:54;;;;;;;8.57;4.90;;;;;;;5.07;78.10;100869.75;4952308;28;20455;-78
2023/04/15 05:21:20;;;;;;;9.07;5.00;;;;;;;5.10;77.66;100873.16;4953393;28;20081;-78
2023/04/15 05:23:46;;;;;;;7.53;5.05;;;;;;;5.10;78.81;100880.06;4944742;28;20043;-77
2023/04/15 05:26:11;;;;;;;6.88;5.00;;;;;;;5.14;78.92;100881.75;4955693;28;20031;-78
2023/04/15 05:28:36;;;;;;;7.20;4.55;;;;;;;5.15;79.16;100883.47;4947225;28;20035;-78
2023/04/15 05:31:02;;;;;;;6.50;4.63;;;;;;;5.19;78.89;100880.00;4946891;28;20053;-77
2023/04/15 05:33:27;;;;;;;8.60;5.40;;;;;;;5.23;79.19;100888.59;4943512;28;20030;-77
2023/04/15 05:35:53;;;;;;;8.38;5.07;;;;;;;5.28;78.78;100892.91;4946138;28;20038;-78
2023/04/15 05:38:18;;;;;;;8.23;5.45;;;;;;;5.32;78.99;100899.75;4947179;28;20183;-78
2023/04/15 05:40:43;;;;;;;7.75;5.47;;;;;;;5.36;78.94;100908.34;4944404;28;20512;-78
2023/04/15 05:43:09;;;;;;;7.07;5.25;;;;;;;5.36;79.05;100908.34;4943873;28;20038;-78
2023/04/15 05:45:34;;;;;;;8.40;5.72;;;;;;;5.39;78.63;100920.38;4945774;28;20506;-78
2023/04/15 05:48:00;;;;;;;8.90;5.25;;;;;;;5.39;78.91;100920.38;4945762;28;20497;-77
2023/04/15 05:50:25;;;;;;;7.50;5.13;;;;;;;5.39;78.85;100920.38;4944234;28;20117;-77
2023/04/15 05:52:51;;;;;;;7.60;5.07;;;;;;;5.39;78.96;100925.53;4944856;28;20832;-77
2023/04/15 05:55:16;;;;;;;8.18;5.05;;;;;;;5.38;79.20;100931.56;4946006;28;20038;-77
2023/04/15 05:57:41;;;;;;;7.20;4.93;;;;;;;5.39;79.32;100933.28;4945261;28;20758;-77
2023/04/15 06:00:07;;;;;;;9.57;5.30;;;;;;;5.39;79.31;100928.13;4944705;28;20043;-78
2023/04/15 06:02:32;;;;;;;6.93;4.93;;;;;;;5.38;78.95;100931.56;4938798;28;20101;-77
2023/04/15 06:04:58;;;;;;;8.45;5.28;;;;;;;5.39;79.59;100928.97;4944455;28;20146;-77
2023/04/15 06:07:23;;;;;;;9.23;5.03;;;;;;;5.41;79.46;100934.13;4947624;28;20046;-77
2023/04/15 06:09:49;;;;;;;8.90;5.45;;;;;;;5.43;79.25;100940.16;4948954;28;20074;-77
2023/04/15 06:12:14;;;;;;;7.45;5.00;;;;;;;5.44;79.93;100947.88;4947172;28;20038;-77
2023/04/15 06:14:40;;;;;;;8.90;5.28;;;;;;;5.47;79.69;100949.56;4947600;28;20378;-77
2023/04/15 06:17:05;;;;;;;9.25;6.00;;;;;;;5.51;79.91;100951.28;4948125;28;20131;-77
2023/04/15 06:19:31;;;;;;;8.27;5.50;;;;;;;5.56;79.61;100961.59;4948486;28;20053;-77
2023/04/15 06:21:57;;;;;;;8.40;5.70;;;;;;;5.59;79.84;100966.75;4947398;28;20467;-77
2023/04/15 06:24:23;;;;;;;9.20;6.10;;;;;;;5.62;80.20;100979.66;4949848;28;20394;-77
2023/04/15 06:26:48;;;;;;;9.13;5.80;;;;;;;5.64;80.23;100970.19;4946807;28;20501;-77
2023/04/15 06:29:13;;;;;;;8.10;5.30;;;;;;;5.68;80.06;100982.22;4945786;28;20050;-77
2023/04/15 06:31:38;;;;;;;8.93;5.75;;;;;;;5.72;79.94;100977.91;4945776;28;20106;-77
2023/04/15 06:34:04;;;;;;;8.32;5.97;;;;;;;5.76;79.59;100980.47;4948366;28;20038;-77
2023/04/15 06:36:29;;;;;;;8.10;5.25;;;;;;;5.80;79.68;100994.25;4947182;28;20035;-77
2023/04/15 06:38:55;;;;;;;10.93;5.85;;;;;;;5.84;80.40;100993.34;4949901;28;20043;-77
2023/04/15 06:41:20;;;;;;;9.00;5.93;;;;;;;5.90;80.39;101005.38;4948528;28;20031;-77
2023/04/15 06:43:46;;;;;;;9.73;6.20;;;;;;;5.96;80.30;101007.94;4949269;28;20062;-77
2023/04/15 06:46:11;;;;;;;8.90;5.80;;;;;;;6.02;81.35;101001.91;4945172;28;20032;-77
2023/04/15 06:48:36;;;;;;;10.10;6.18;;;;;;;6.07;80.52;101011.34;4950311;28;20034;-77
2023/04/15 06:51:02;;;;;;;9.65;6.15;;;;;;;6.14;80.14;101017.38;4948960;28;20043;-77
2023/04/15 06:53:28;;;;;;;10.77;6.60;;;;;;;6.18;81.17;101019.06;4948096;28;20030;-77
2023/04/15 06:55:53;;;;;;;9.25;6.15;;;;;;;6.25;81.36;101026.78;4949279;28;20447;-77
2023/04/15 06:58:18;;;;;;;10.68;6.63;;;;;;;6.30;80.88;101028.47;4947725;28;20039;-77
2023/04/15 07:00:44;;;;;;;8.93;6.57;;;;;;;6.38;80.79;101031.03;4948722;28;20039;-77
2023/04/15 07:03:11;;;;;;;11.02;6.65;;;;;;;6.44;81.74;101031.00;4947221;28;20147;-77
2023/04/15 07:05:37;;;;;;;10.32;6.18;;;;;;;6.50;81.51;101024.94;4947050;28;20035;-77
2023/04/15 07:08:03;;;;;;;9.15;6.43;;;;;;;6.58;80.89;101038.66;4947645;28;20183;-77
2023/04/15 07:10:28;;;;;;;9.30;6.38;;;;;;;6.65;80.83;101039.50;4949019;28;20143;-78
2023/04/15 07:12:54;;;;;;;10.38;6.60;;;;;;;6.72;81.27;101040.31;4950096;28;20094;-77
2023/04/15 07:15:19;;;;;;;9.35;6.70;;;;;;;6.79;80.61;101048.03;4947688;28;20056;-78
2023/04/15 07:17:45;;;;;;;9.68;6.57;;;;;;;6.89;80.65;101054.00;4946563;28;20035;-77
2023/04/15 07:20:11;;;;;;;10.43;6.60;;;;;;;6.97;80.14;101056.53;4947940;28;20098;-77
2023/04/15 07:22:37;;;;;;;9.75;6.53;;;;;;;7.05;80.26;101059.91;4944995;28;21059;-77
2023/04/15 07:25:02;;;;;;;10.38;6.97;;;;;;;7.12;79.97;101059.00;4947666;28;20031;-77
2023/04/15 07:27:28;;;;;;;12.75;7.82;;;;;;;7.19;80.19;101066.69;4948490;28;20367;-77
2023/04/15 07:29:53;;;;;;;9.93;6.68;;;;;;;7.27;79.82;101070.94;4949053;28;20059;-77
2023/04/15 07:32:18;;;;;;;11.52;7.07;;;;;;;7.32;80.31;101078.69;4947265;28;20078;-77
2023/04/15 07:34:44;;;;;;;9.27;6.13;;;;;;;7.38;78.69;101078.59;4946012;28;20039;-77
2023/04/15 07:37:09;;;;;;;10.15;6.43;;;;;;;7.44;79.29;101088.03;4947958;28;20031;-77
2023/04/15 07:39:35;;;;;;;8.95;6.20;;;;;;;7.53;80.57;101092.28;4944947;28;20499;-77
2023/04/15 07:42:01;;;;;;;11.52;7.07;;;;;;;7.62;79.76;101089.63;4948103;28;20030;-77
2023/04/15 07:44:26;;;;;;;11.52;7.03;;;;;;;7.70;79.62;101092.97;4946837;28;20692;-77
2023/04/15 07:46:51;;;;;;;10.60;7.00;;;;;;;7.78;80.03;101092.91;4946679;28;20141;-77
2023/04/15 07:49:18;;;;;;;11.68;7.45;;;;;;;7.86;79.63;101092.81;4946901;28;20042;-77
2023/04/15 07:51:43;;;;;;;11.32;7.60;;;;;;;7.95;80.08;101095.34;4948150;28;20498;-78
2023/04/15 07:54:09;;;;;;;11.40;7.70;;;;;;;8.03;80.02;101103.88;4948942;28;20117;-78
2023/04/15 07:56:34;;;;;;;10.45;7.00;;;;;;;8.09;78.43;101102.09;4946674;28;20363;-78
2023/04/15 07:59:01;;;;;;;9.90;6.53;;;;;;;8.15;79.31;101105.47;4945318;28;20122;-78
2023/04/15 08:01:26;;;;;;;8.68;5.82;;;;;;;8.24;77.51;101112.28;4928811;28;20059;-78
2023/04/15 08:03:52;;;;;;;9.40;5.85;;;;;;;8.31;77.01;101108.75;4942521;28;20491;-77
2023/04/15 08:06:17;;;;;;;8.98;6.00;;;;;;;8.39;77.26;101115.56;4943675;28;20046;-77
2023/04/15 08:08:42;;;;;;;7.68;4.85;;;;;;;8.45;76.61;101123.28;4942223;28;20031;-77
2023/04/15 08:11:08;;;;;;;7.28;4.60;;;;;;;8.49;74.99;101123.25;4945237;28;20119;-77
2023/04/15 08:13:33;;;;;;;8.32;5.07;;;;;;;8.54;74.32;101120.59;4944948;28;20045;-76
2023/04/15 08:16:15;;;;;;;8.05;4.72;;;;;;;8.60;74.89;101120.50;4943865;28;20427;-76
2023/04/15 08:18:40;;;;;;;8.18;5.20;;;;;;;8.67;76.12;101125.63;4946198;28;20118;-77
2023/04/15 08:21:06;;;;;;;6.85;4.75;;;;;;;8.73;75.27;101129.00;4928253;28;20047;-77
2023/04/15 08:23:32;;;;;;;6.13;4.13;;;;;;;8.79;73.46;101130.66;4943948;28;20487;-77
2023/04/15 08:25:57;;;;;;;7.95;4.25;;;;;;;8.78;72.41;101137.59;4941639;28;20082;-77
2023/04/15 08:28:23;;;;;;;6.20;4.22;;;;;;;8.77;72.11;101142.78;4946573;28;20066;-77
2023/04/15 08:30:48;;;;;;;7.22;4.15;;;;;;;8.76;71.28;101147.13;4943193;28;20074;-77
2023/04/15 08:33:13;;;;;;;6.72;4.28;;;;;;;8.76;72.30;101151.44;4942051;28;20400;-77
2023/04/15 08:35:38;;;;;;;6.28;4.20;;;;;;;8.78;72.00;101154.88;4939330;28;20019;-78
2023/04/15 08:38:04;;;;;;;6.95;4.30;;;;;;;8.80;73.23;101159.16;4942716;28;20480;-78
2023/04/15 08:40:42;;;;;;;6.53;4.10;;;;;;;8.84;71.41;101165.19;4942338;28;20145;-77
2023/04/15 08:43:16;;;;;;;5.85;4.15;;;;;;;8.84;71.44;101164.31;4941102;28;20035;-77
2023/04/15 08:45:44;;;;;;;6.80;4.70;;;;;;;8.79;70.23;101167.84;4945330;28;20039;-77
2023/04/15 08:48:15;;;;;;;6.35;4.30;;;;;;;8.77;71.62;101172.19;4943118;28;20483;-77
2023/04/15 08:50:40;;;;;;;8.10;4.47;;;;;;;8.78;71.30;101170.44;4942614;28;20070;-77
2023/04/15 08:53:06;;;;;;;6.57;4.20;;;;;;;8.80;72.25;101176.47;4943479;28;20035;-77
2023/04/15 08:55:34;;;;;;;7.68;4.60;;;;;;;8.83;72.36;101181.63;4945217;28;20031;-77
2023/04/15 08:58:01;;;;;;;6.00;4.35;;;;;;;8.86;72.29;101181.59;4943022;28;20027;-78
2023/04/15 09:00:28;;;;;;;10.68;4.97;;;;;;;8.93;72.25;101185.78;4947162;28;20027;-78
2023/04/15 09:02:54;;;;;;;37.42;7.15;;;;;;;9.00;72.28;101194.34;4943784;28;20039;-77
2023/04/15 09:05:21;;;;;;;48.22;9.40;;;;;;;9.11;72.54;101194.22;4944418;28;20098;-77
2023/04/15 09:07:47;;;;;;;18.58;6.72;;;;;;;9.14;70.71;101204.56;4941060;28;20042;-79
2023/04/15 09:10:12;;;;;;;21.42;6.80;;;;;;;9.16;71.20;101201.94;4941362;28;20031;-77
2023/04/15 09:12:38;;;;;;;12.77;5.15;;;;;;;9.21;71.23;101207.91;4945731;28;20466;-77
2023/04/15 09:15:04;;;;;;;10.38;4.45;;;;;;;9.22;69.54;101201.84;4942933;28;20035;-77
2023/04/15 09:17:32;;;;;;;6.35;3.88;;;;;;;9.26;70.44;101219.94;4946806;28;20035;-77
2023/04/15 09:20:08;;;;;;;5.50;3.20;;;;;;;9.35;70.76;101223.31;4940389;28;20062;-77
2023/04/15 09:22:34;;;;;;;6.90;3.97;;;;;;;9.44;68.84;101219.72;4940112;28;20039;-76
2023/04/15 09:25:00;;;;;;;7.15;4.00;;;;;;;9.52;68.74;101221.31;4945319;28;20046;-82
2023/04/15 09:27:25;;;;;;;5.47;3.30;;;;;;;9.54;68.13;101229.97;4942161;28;20040;-78
2023/04/15 09:29:52;;;;;;;5.07;3.38;;;;;;;9.62;69.84;101223.75;4941233;28;20767;-79
2023/04/15 09:32:20;;;;;;;5.40;3.40;;;;;;;9.71;68.59;101236.63;4928744;28;20094;-78
2023/04/15 09:34:45;;;;;;;6.45;4.00;;;;;;;9.80;70.13;101236.47;4941918;28;20032;-79
2023/04/15 09:37:12;;;;;;;5.22;3.50;;;;;;;9.90;68.63;101236.34;4945380;28;20877;-77
2023/04/15 09:40:04;;;;;;;7.10;4.00;;;;;;;9.92;69.02;101237.13;4927442;28;20035;-78
2023/04/15 09:42:31;;;;;;;5.38;4.00;;;;;;;9.94;67.28;101245.78;4941148;28;20047;-77
2023/04/15 09:45:07;;;;;;;5.78;3.53;;;;;;;10.00;67.32;101245.69;4935696;28;20035;-77
2023/04/15 09:47:33;;;;;;;5.70;3.90;;;;;;;10.03;67.16;101248.22;4947907;28;20023;-78
2023/04/15 09:49:59;;;;;;;5.30;3.50;;;;;;;10.10;67.04;101251.59;4930140;28;20510;-78
2023/04/15 09:52:24;;;;;;;6.07;3.90;;;;;;;10.14;67.45;101248.91;4946805;28;20043;-78
2023/04/15 09:54:53;;;;;;;6.38;3.83;;;;;;;10.22;68.63;101255.72;4944007;28;20031;-77
2023/04/15 09:57:18;;;;;;;7.00;3.90;;;;;;;10.28;67.61;101259.06;4947527;28;20490;-77
2023/04/15 09:59:44;;;;;;;5.55;3.63;;;;;;;10.35;64.92;101257.22;4948362;28;20023;-77
2023/04/15 10:02:11;;;;;;;5.97;3.67;;;;;;;10.38;66.67;101262.41;4947367;28;20038;-77
2023/04/15 10:04:40;;;;;;;4.78;3.10;;;;;;;10.42;66.59;101266.63;4943714;28;20031;-77
2023/04/15 10:07:08;;;;;;;5.72;3.00;;;;;;;10.48;65.67;101263.09;4945592;28;20027;-77
2023/04/15 10:09:35;;;;;;;4.13;2.97;;;;;;;10.54;64.85;101275.97;4944342;28;20023;-77
2023/04/15 10:12:03;;;;;;;5.35;3.20;;;;;;;10.63;67.08;101272.31;4946229;28;20039;-80
2023/04/15 10:14:33;;;;;;;5.10;3.22;;;;;;;10.73;65.71;101268.69;4944896;28;20026;-78
2023/04/15 10:17:00;;;;;;;5.00;2.97;;;;;;;10.78;64.54;101264.22;4930606;28;20031;-79
2023/04/15 10:19:29;;;;;;;5.85;2.80;;;;;;;10.80;64.54;101265.94;4931444;28;20443;-78
2023/04/15 10:21:55;;;;;;;3.40;2.17;;;;;;;10.83;63.05;101274.56;4950275;28;20401;-78
2023/04/15 10:24:21;;;;;;;3.55;1.83;;;;;;;10.89;61.58;101265.75;4950929;28;20114;-78
2023/04/15 10:26:47;;;;;;;4.25;1.90;;;;;;;10.95;62.70;101267.38;4948835;28;20398;-78
2023/04/15 10:29:12;;;;;;;2.60;2.10;;;;;;;10.98;60.98;101270.78;4948548;28;20027;-78
2023/04/15 10:31:39;;;;;;;2.70;1.88;;;;;;;11.03;60.61;101270.66;4949048;28;20027;-78
2023/04/15 10:34:05;;;;;;;2.58;1.88;;;;;;;11.07;61.65;101267.13;4945907;28;20151;-78
2023/04/15 10:36:32;;;;;;;3.47;2.15;;;;;;;11.07;62.52;101278.41;4947910;28;20121;-78
2023/04/15 10:38:57;;;;;;;3.10;1.80;;;;;;;11.06;62.11;101276.69;4947357;28;20035;-78
2023/04/15 10:41:26;;;;;;;2.70;1.67;;;;;;;11.08;63.11;101277.53;4950005;28;20043;-78
2023/04/15 10:43:53;;;;;;;3.33;2.17;;;;;;;11.13;63.00;101276.53;4949972;28;20452;-78
2023/04/15 10:46:36;;;;;;;2.50;1.90;;;;;;;11.13;61.90;101285.22;4950271;28;20101;-78
2023/04/15 10:49:16;;;;;;;3.08;1.90;;;;;;;11.17;63.46;101286.00;4947766;28;20038;-79
2023/04/15 10:51:45;;;;;;;2.50;1.70;;;;;;;11.25;62.29;101294.53;4949573;28;20035;-78
2023/04/15 10:54:23;;;;;;;2.70;1.98;;;;;;;11.28;61.70;101288.41;4949474;28;20023;-78
2023/04/15 10:57:07;;;;;;;2.88;1.95;;;;;;;11.37;61.84;101286.44;4949022;28;20038;-78
2023/04/15 10:59:38;;;;;;;3.13;2.05;;;;;;;11.42;61.60;101293.31;4943405;28;20039;-78
2023/04/15 11:02:06;;;;;;;3.17;1.95;;;;;;;11.47;63.53;101281.91;4944123;28;20037;-79
2023/04/15 11:04:54;;;;;;;3.75;2.03;;;;;;;11.58;62.25;101289.47;4939636;28;20046;-79
2023/04/15 11:07:39;;;;;;;3.38;2.00;;;;;;;11.59;61.58;101293.78;4947425;28;20035;-79
2023/04/15 11:10:17;;;;;;;2.95;1.70;;;;;;;11.63;61.10;101292.81;4944803;28;20027;-79
2023/04/15 11:12:43;;;;;;;1.75;1.27;;;;;;;11.71;60.43;101291.78;4946829;28;20062;-79
2023/04/15 11:15:28;;;;;;;2.58;1.30;;;;;;;11.86;61.74;101293.19;4944193;28;20031;-79
2023/04/15 11:17:54;;;;;;;2.30;1.52;;;;;;;11.98;59.81;101293.75;4951419;28;20052;-79
2023/04/15 11:20:20;;;;;;;1.85;1.48;;;;;;;12.10;58.96;101294.38;4944881;28;20238;-79
2023/04/15 11:22:53;;;;;;;2.05;1.35;;;;;;;12.24;60.08;101291.38;4945270;28;20106;-79
2023/04/15 11:25:26;;;;;;;3.22;1.70;;;;;;;12.39;59.68;101296.22;4947309;28;20089;-79
2023/04/15 11:27:53;;;;;;;2.50;1.65;;;;;;;12.48;58.38;101302.94;4947986;28;20110;-78